Time;durP1;ratioP1;P1;durP2;ratioP2;P2;SDS_P1;SDS_P2;PMS_P1;PMS_P2;Temp;Humidity;BMP_temperature;BMP_pressure;BME280_temperature;BME280_humidity;BME280_pressure;Samples;Min_cycle;Max_cycle;Signal;HPM_P1;HPM_P2
2023/10/25 00:01:00;;;;;;;20.10;8.10;;;10.00;99.90;;;;;;5093045;28;20047;-81
2023/10/25 00:03:46;;;;;;;23.25;8.55;;;10.00;99.90;;;;;;5093622;28;20048;-82
2023/10/25 00:06:32;;;;;;;28.05;9.98;;;10.00;99.90;;;;;;5075048;28;20185;-79
2023/10/25 00:09:18;;;;;;;17.63;8.45;;;10.00;99.90;;;;;;5075038;28;20114;-85
2023/10/25 00:12:04;;;;;;;17.15;7.45;;;10.00;99.90;;;;;;5074466;28;20044;-74
2023/10/25 00:14:50;;;;;;;23.50;8.90;;;9.90;99.90;;;;;;5074838;28;20054;-74
2023/10/25 00:17:36;;;;;;;17.17;8.38;;;9.90;99.90;;;;;;5074344;28;20070;-80
2023/10/25 00:20:22;;;;;;;13.70;7.65;;;9.90;99.90;;;;;;5060585;28;20160;-75
2023/10/25 00:23:08;;;;;;;16.05;8.70;;;9.90;99.90;;;;;;5061588;28;20142;-84
2023/10/25 00:25:54;;;;;;;20.40;7.30;;;9.90;99.90;;;;;;5075356;28;20058;-78
2023/10/25 00:28:40;;;;;;;16.67;7.13;;;9.90;99.90;;;;;;5060736;28;20427;-75
2023/10/25 00:31:26;;;;;;;16.60;7.63;;;9.80;99.90;;;;;;5073848;28;20389;-73
2023/10/25 00:34:12;;;;;;;16.40;6.75;;;9.80;99.90;;;;;;5074125;28;20059;-79
2023/10/25 00:36:58;;;;;;;15.43;6.07;;;9.80;99.90;;;;;;5074254;28;20063;-77
2023/10/25 00:39:44;;;;;;;12.65;6.60;;;9.80;99.90;;;;;;5093644;28;20044;-73
2023/10/25 00:42:30;;;;;;;21.10;6.28;;;9.80;99.90;;;;;;5078885;28;20075;-74
2023/10/25 00:45:16;;;;;;;12.38;5.80;;;9.80;99.90;;;;;;5093347;28;20054;-77
2023/10/25 00:48:02;;;;;;;14.18;6.32;;;9.80;99.90;;;;;;5073979;28;20105;-77
2023/10/25 00:50:48;;;;;;;10.63;4.95;;;9.80;99.90;;;;;;5072825;28;20515;-75
2023/10/25 00:53:46;;;;;;;18.10;6.28;;;9.80;99.90;;;;;;5074538;28;20154;-79
2023/10/25 00:56:35;;;;;;;14.30;6.00;;;9.80;99.90;;;;;;5074272;28;20071;-82
2023/10/25 00:59:22;;;;;;;11.82;5.82;;;9.80;99.90;;;;;;5080462;28;20051;-78
2023/10/25 01:02:08;;;;;;;15.80;5.43;;;9.70;99.90;;;;;;5079670;28;20076;-74
2023/10/25 01:04:54;;;;;;;14.85;4.85;;;9.70;99.90;;;;;;5098995;28;20044;-80
2023/10/25 01:07:40;;;;;;;15.10;5.28;;;9.70;99.90;;;;;;5061022;28;20086;-82
2023/10/25 01:10:27;;;;;;;13.85;5.35;;;9.60;99.90;;;;;;5073127;28;20113;-81
2023/10/25 01:13:13;;;;;;;11.02;4.47;;;9.70;99.90;;;;;;5074557;28;20044;-74
2023/10/25 01:15:59;;;;;;;15.77;5.03;;;9.70;99.90;;;;;;5073917;28;20801;-76
2023/10/25 01:18:45;;;;;;;14.07;3.97;;;9.70;99.90;;;;;;5071950;28;20484;-76
2023/10/25 01:21:31;;;;;;;13.07;4.75;;;9.70;99.90;;;;;;5073546;28;20059;-79
2023/10/25 01:24:17;;;;;;;12.32;4.82;;;9.70;99.90;;;;;;5072226;28;20043;-74
2023/10/25 01:27:03;;;;;;;14.18;4.10;;;9.70;99.90;;;;;;5072666;28;20051;-75
2023/10/25 01:29:49;;;;;;;12.52;3.95;;;9.70;99.90;;;;;;5072635;28;20421;-77
2023/10/25 01:32:35;;;;;;;9.68;4.18;;;9.60;99.90;;;;;;5072803;28;20048;-75
2023/10/25 01:35:22;;;;;;;12.32;4.65;;;9.60;99.90;;;;;;5091244;28;20056;-75
2023/10/25 01:38:08;;;;;;;10.52;4.20;;;9.60;99.90;;;;;;5091249;28;20407;-77
2023/10/25 01:40:53;;;;;;;11.82;4.65;;;9.60;99.90;;;;;;5073116;28;20476;-75
2023/10/25 01:43:39;;;;;;;13.07;4.15;;;9.50;99.90;;;;;;5075739;28;20058;-75
2023/10/25 01:46:25;;;;;;;14.23;4.00;;;9.50;99.90;;;;;;5058818;28;20051;-76
2023/10/25 01:49:11;;;;;;;14.18;4.88;;;9.50;99.90;;;;;;5072529;28;20144;-75
2023/10/25 01:51:57;;;;;;;9.60;4.47;;;9.40;99.90;;;;;;5072364;28;20055;-85
2023/10/25 01:54:46;;;;;;;10.07;4.63;;;9.40;99.90;;;;;;5072074;28;20048;-78
2023/10/25 01:57:32;;;;;;;10.10;4.45;;;9.40;99.90;;;;;;5091303;28;20216;-80
2023/10/25 02:00:18;;;;;;;12.15;5.13;;;9.30;99.90;;;;;;5090983;28;20488;-78
2023/10/25 02:03:04;;;;;;;12.88;5.63;;;9.30;99.90;;;;;;5091086;28;20158;-82
2023/10/25 02:05:50;;;;;;;23.67;5.40;;;9.20;99.90;;;;;;5071847;28;20052;-79
2023/10/25 02:08:36;;;;;;;13.60;5.63;;;9.20;99.90;;;;;;5072818;28;20097;-85
2023/10/25 02:11:23;;;;;;;19.05;6.10;;;9.20;99.90;;;;;;5073138;28;20543;-82
2023/10/25 02:14:09;;;;;;;13.23;5.68;;;9.20;99.90;;;;;;5073656;28;20060;-85
2023/10/25 02:16:55;;;;;;;14.35;5.53;;;9.20;99.90;;;;;;5046411;28;20109;-85
2023/10/25 02:19:41;;;;;;;12.75;5.25;;;9.20;99.90;;;;;;5060783;28;20109;-80
2023/10/25 02:22:27;;;;;;;19.58;5.22;;;9.10;99.90;;;;;;5067199;28;20133;-75
2023/10/25 02:25:15;;;;;;;14.25;5.05;;;9.10;99.90;;;;;;5075322;28;20058;-79
2023/10/25 02:28:01;;;;;;;13.90;5.50;;;9.20;99.90;;;;;;5073786;28;20048;-76
2023/10/25 02:30:47;;;;;;;20.38;7.05;;;9.20;99.90;;;;;;5071646;28;20056;-80
2023/10/25 02:33:33;;;;;;;13.93;6.85;;;9.20;99.90;;;;;;5072369;28;20142;-77
2023/10/25 02:36:19;;;;;;;10.73;5.47;;;9.20;99.90;;;;;;5073241;28;20055;-75
2023/10/25 02:39:05;;;;;;;17.55;6.72;;;9.20;99.90;;;;;;5072364;28;20135;-81
2023/10/25 02:41:51;;;;;;;16.05;6.30;;;9.20;99.90;;;;;;5072159;28;20055;-75
2023/10/25 02:44:37;;;;;;;13.07;6.18;;;9.20;99.90;;;;;;5089578;28;20048;-77
2023/10/25 02:47:23;;;;;;;11.80;5.80;;;9.20;99.90;;;;;;5072025;28;20052;-76
2023/10/25 02:50:10;;;;;;;17.33;6.30;;;9.20;99.90;;;;;;5071783;28;20408;-74
2023/10/25 02:52:56;;;;;;;14.48;5.80;;;9.20;99.90;;;;;;5075919;28;20253;-75
2023/10/25 02:55:44;;;;;;;14.25;6.70;;;9.20;99.90;;;;;;5072401;28;20064;-79
2023/10/25 02:58:31;;;;;;;17.85;6.57;;;9.20;99.90;;;;;;5073384;28;20091;-81
2023/10/25 03:01:24;;;;;;;15.68;7.65;;;9.20;99.90;;;;;;5074628;28;20423;-80
2023/10/25 03:04:10;;;;;;;16.35;6.90;;;9.20;99.90;;;;;;5079809;28;20442;-83
2023/10/25 03:06:56;;;;;;;13.10;6.55;;;9.20;99.90;;;;;;5062515;28;20518;-83
2023/10/25 03:09:42;;;;;;;18.98;7.63;;;9.20;99.90;;;;;;5076464;28;20102;-77
2023/10/25 03:12:29;;;;;;;20.30;7.95;;;9.30;99.90;;;;;;5062418;28;20055;-78
2023/10/25 03:15:17;;;;;;;16.35;8.50;;;9.30;99.90;;;;;;5075805;28;20081;-81
2023/10/25 03:18:03;;;;;;;17.63;8.50;;;9.30;99.90;;;;;;5076637;28;20423;-81
2023/10/25 03:20:49;;;;;;;17.88;8.43;;;9.20;99.90;;;;;;5075238;28;20052;-78
2023/10/25 03:23:35;;;;;;;22.33;9.15;;;9.20;99.90;;;;;;5078228;28;20411;-81
2023/10/25 03:26:21;;;;;;;14.07;7.72;;;9.20;99.90;;;;;;5065293;28;20059;-79
2023/10/25 03:29:07;;;;;;;16.70;8.57;;;9.30;99.90;;;;;;5080155;28;20518;-80
2023/10/25 03:31:57;;;;;;;15.60;8.38;;;9.30;99.90;;;;;;5064500;28;20140;-78
2023/10/25 03:34:44;;;;;;;16.38;8.68;;;9.20;99.90;;;;;;5077597;28;20076;-83
2023/10/25 03:37:30;;;;;;;22.45;9.40;;;9.10;99.90;;;;;;5096912;28;20088;-82
2023/10/25 03:40:16;;;;;;;29.95;8.75;;;9.20;99.90;;;;;;5075701;28;20146;-75
2023/10/25 03:43:02;;;;;;;17.50;8.77;;;9.10;99.90;;;;;;5075766;28;20250;-81
2023/10/25 03:45:48;;;;;;;26.63;9.40;;;9.10;99.90;;;;;;5076747;28;20446;-80
2023/10/25 03:48:36;;;;;;;19.45;9.35;;;9.10;99.90;;;;;;5094716;28;20051;-82
2023/10/25 03:51:22;;;;;;;20.35;9.63;;;9.10;99.90;;;;;;5075047;28;20068;-80
2023/10/25 03:54:08;;;;;;;22.15;10.07;;;9.10;99.90;;;;;;5076365;28;20052;-81
2023/10/25 03:56:54;;;;;;;24.15;9.75;;;9.10;99.90;;;;;;5092370;28;20044;-80
2023/10/25 03:59:40;;;;;;;22.10;10.60;;;9.00;99.90;;;;;;5062194;28;20067;-80
2023/10/25 04:02:28;;;;;;;22.90;10.35;;;9.00;99.90;;;;;;5074438;28;20052;-77
2023/10/25 04:05:14;;;;;;;25.42;10.93;;;8.90;99.90;;;;;;5060395;28;20094;-77
2023/10/25 04:08:00;;;;;;;24.90;11.18;;;8.90;99.90;;;;;;5073483;28;20058;-77
2023/10/25 04:10:50;;;;;;;21.65;10.82;;;8.80;99.90;;;;;;5073794;28;20086;-79
2023/10/25 04:13:36;;;;;;;22.40;10.75;;;8.80;99.90;;;;;;5075225;28;20074;-77
2023/10/25 04:16:22;;;;;;;25.88;11.50;;;8.70;99.90;;;;;;5060670;28;20062;-76
2023/10/25 04:19:08;;;;;;;23.98;11.60;;;8.70;99.90;;;;;;5074126;28;20044;-82
2023/10/25 04:21:54;;;;;;;18.75;10.57;;;8.60;99.90;;;;;;5074435;28;20199;-80
2023/10/25 04:24:40;;;;;;;25.35;11.95;;;8.60;99.90;;;;;;5074105;28;20056;-85
2023/10/25 04:27:26;;;;;;;24.95;11.48;;;8.60;99.90;;;;;;5073748;28;20185;-77
2023/10/25 04:30:12;;;;;;;25.42;12.00;;;8.50;99.90;;;;;;5061408;28;20051;-82
2023/10/25 04:32:58;;;;;;;28.48;12.68;;;8.40;99.90;;;;;;5092480;28;20056;-81
2023/10/25 04:35:44;;;;;;;21.60;12.13;;;8.40;99.90;;;;;;5074515;28;20052;-84
2023/10/25 04:38:31;;;;;;;22.73;12.48;;;8.40;99.90;;;;;;5073454;28;20052;-85
2023/10/25 04:41:17;;;;;;;23.20;12.93;;;8.40;99.90;;;;;;5075661;28;20048;-78
2023/10/25 04:44:03;;;;;;;23.88;12.50;;;8.40;99.90;;;;;;5062109;28;20052;-81
2023/10/25 04:46:49;;;;;;;27.05;13.82;;;8.30;99.90;;;;;;5077267;28;20139;-81
2023/10/25 04:49:36;;;;;;;25.42;13.60;;;8.30;99.90;;;;;;5081664;28;20051;-82
2023/10/25 04:52:22;;;;;;;26.00;13.15;;;8.30;99.90;;;;;;5095177;28;20056;-84
2023/10/25 04:55:09;;;;;;;33.30;14.85;;;8.20;99.90;;;;;;5074179;28;20077;-78
2023/10/25 04:57:56;;;;;;;26.85;14.60;;;8.20;99.90;;;;;;5074047;28;20052;-77
2023/10/25 05:00:42;;;;;;;32.55;15.15;;;8.20;99.90;;;;;;5074545;28;20078;-80
2023/10/25 05:03:28;;;;;;;29.33;14.30;;;8.10;99.90;;;;;;5075228;28;20515;-78
2023/10/25 05:06:15;;;;;;;29.95;15.15;;;8.10;99.90;;;;;;5059579;28;20048;-77
2023/10/25 05:09:01;;;;;;;30.30;15.98;;;8.10;99.90;;;;;;5092167;28;20048;-76
2023/10/25 05:11:56;;;;;;;28.63;15.52;;;8.00;99.90;;;;;;5072418;28;20473;-78
2023/10/25 05:14:42;;;;;;;33.37;16.47;;;8.10;99.90;;;;;;5073269;28;20051;-80
2023/10/25 05:17:28;;;;;;;39.38;16.77;;;8.00;99.90;;;;;;5091648;28;20047;-76
2023/10/25 05:20:15;;;;;;;33.97;16.08;;;8.00;99.90;;;;;;5092201;28;20424;-75
2023/10/25 05:23:03;;;;;;;35.88;16.90;;;8.00;99.90;;;;;;5089560;28;20048;-78
2023/10/25 05:25:49;;;;;;;36.25;18.02;;;8.00;99.90;;;;;;5091561;28;20059;-85
2023/10/25 05:28:36;;;;;;;31.67;16.58;;;8.00;99.90;;;;;;5073093;28;20048;-75
2023/10/25 05:31:25;;;;;;;33.78;17.38;;;8.00;99.90;;;;;;5073966;28;20245;-77
2023/10/25 05:34:12;;;;;;;38.20;17.75;;;8.00;99.90;;;;;;5072270;28;20044;-77
2023/10/25 05:36:58;;;;;;;38.28;17.15;;;8.00;99.90;;;;;;5072047;28;20044;-78
2023/10/25 05:39:45;;;;;;;31.00;16.77;;;8.00;99.90;;;;;;5072273;28;20151;-75
2023/10/25 05:42:38;;;;;;;38.70;20.40;;;7.90;99.90;;;;;;5090028;28;20522;-78
2023/10/25 05:45:24;;;;;;;38.90;19.42;;;8.00;99.90;;;;;;5090196;28;20074;-78
2023/10/25 05:48:14;;;;;;;40.78;19.60;;;7.90;99.90;;;;;;5090589;28;20395;-82
2023/10/25 05:51:04;;;;;;;33.63;18.20;;;7.90;99.90;;;;;;5072932;28;20066;-82
2023/10/25 05:53:51;;;;;;;30.83;16.98;;;7.90;99.90;;;;;;5073636;28;20080;-84
2023/10/25 05:56:37;;;;;;;32.00;16.95;;;7.90;99.90;;;;;;5068145;28;20062;-77
2023/10/25 05:59:23;;;;;;;37.13;19.02;;;7.90;99.90;;;;;;5079841;28;20052;-75
2023/10/25 06:02:22;;;;;;;38.63;18.30;;;7.90;99.90;;;;;;5075090;28;20393;-75
2023/10/25 06:05:12;;;;;;;43.05;20.60;;;7.90;99.90;;;;;;5092052;28;20040;-84
2023/10/25 06:07:59;;;;;;;32.40;17.73;;;7.90;99.90;;;;;;5094478;28;20473;-81
2023/10/25 06:10:45;;;;;;;30.60;17.40;;;7.80;99.90;;;;;;5073648;28;20526;-78
2023/10/25 06:13:31;;;;;;;34.33;17.10;;;7.80;99.90;;;;;;5072731;28;20511;-85
2023/10/25 06:16:20;;;;;;;34.85;17.27;;;7.80;99.90;;;;;;5072938;28;20097;-80
2023/10/25 06:19:06;;;;;;;32.40;17.63;;;7.80;99.90;;;;;;5057858;28;20142;-81
2023/10/25 06:21:54;;;;;;;37.08;17.85;;;7.80;99.90;;;;;;5090319;28;20491;-78
2023/10/25 06:24:40;;;;;;;36.22;18.63;;;7.80;99.90;;;;;;5072814;28;20060;-81
2023/10/25 06:27:27;;;;;;;32.67;17.40;;;7.70;99.90;;;;;;5059087;28;20048;-84
2023/10/25 06:30:13;;;;;;;30.67;18.00;;;7.70;99.90;;;;;;5071422;28;20048;-80
2023/10/25 06:32:59;;;;;;;37.75;17.60;;;7.70;99.90;;;;;;5072125;28;20137;-79
2023/10/25 06:35:45;;;;;;;31.58;15.73;;;7.70;99.90;;;;;;5078105;28;20496;-81
2023/10/25 06:38:32;;;;;;;35.55;17.25;;;7.70;99.90;;;;;;5096551;28;20139;-79
2023/10/25 06:41:24;;;;;;;37.65;15.65;;;7.80;99.90;;;;;;5078223;28;20512;-79
2023/10/25 06:44:10;;;;;;;28.38;15.70;;;7.80;99.90;;;;;;5096914;28;20040;-78
2023/10/25 06:46:57;;;;;;;29.98;15.52;;;7.90;99.90;;;;;;5078297;28;20079;-78
2023/10/25 06:49:43;;;;;;;38.25;16.77;;;7.90;99.90;;;;;;5096423;28;20114;-79
2023/10/25 06:52:29;;;;;;;31.27;15.07;;;8.00;99.90;;;;;;5081052;28;20056;-81
2023/10/25 06:55:16;;;;;;;27.10;16.30;;;8.00;99.90;;;;;;5079379;28;20687;-85
2023/10/25 06:58:02;;;;;;;30.92;16.02;;;8.00;99.90;;;;;;5067037;28;20044;-76
2023/10/25 07:00:50;;;;;;;27.73;14.52;;;8.10;99.90;;;;;;5067444;28;20587;-84
2023/10/25 07:03:40;;;;;;;24.10;13.90;;;8.10;99.90;;;;;;5082224;28;20189;-74
2023/10/25 07:06:26;;;;;;;28.02;13.20;;;8.20;99.90;;;;;;5079098;28;20054;-75
2023/10/25 07:09:14;;;;;;;28.58;12.98;;;8.20;99.90;;;;;;5078426;28;20052;-81
2023/10/25 07:12:00;;;;;;;23.73;12.77;;;8.20;99.90;;;;;;5098366;28;20059;-80
2023/10/25 07:14:49;;;;;;;23.63;13.05;;;8.30;99.90;;;;;;5082830;28;20071;-74
2023/10/25 07:17:35;;;;;;;25.80;12.80;;;8.30;99.90;;;;;;5078336;28;20047;-77
2023/10/25 07:20:22;;;;;;;22.73;11.07;;;8.30;99.90;;;;;;5078639;28;20057;-80
2023/10/25 07:23:09;;;;;;;23.15;12.23;;;8.30;99.90;;;;;;5078173;28;20446;-80
2023/10/25 07:25:55;;;;;;;23.85;12.38;;;8.40;99.90;;;;;;5078617;28;20056;-77
2023/10/25 07:28:41;;;;;;;23.30;12.32;;;8.40;99.90;;;;;;5077451;28;20052;-77
2023/10/25 07:31:27;;;;;;;21.67;10.63;;;8.50;99.90;;;;;;5076902;28;20060;-76
2023/10/25 07:34:13;;;;;;;22.35;11.43;;;8.60;99.90;;;;;;5077944;28;20047;-79
2023/10/25 07:36:59;;;;;;;18.70;10.35;;;8.70;99.90;;;;;;5095510;28;20114;-77
2023/10/25 07:39:45;;;;;;;21.95;10.38;;;8.70;99.90;;;;;;5095335;28;20059;-80
2023/10/25 07:42:31;;;;;;;22.48;10.40;;;8.60;99.90;;;;;;5096167;28;20083;-82
2023/10/25 07:45:17;;;;;;;21.30;9.63;;;8.60;99.90;;;;;;5094387;28;20055;-81
2023/10/25 07:48:04;;;;;;;19.98;10.18;;;8.60;99.90;;;;;;5047799;28;20047;-77
2023/10/25 07:50:50;;;;;;;20.20;9.45;;;8.50;99.90;;;;;;5074202;28;20514;-79
2023/10/25 07:53:36;;;;;;;25.05;10.25;;;8.60;99.90;;;;;;5075502;28;20079;-80
2023/10/25 07:56:23;;;;;;;17.13;9.18;;;8.70;99.90;;;;;;5062964;28;20055;-86
2023/10/25 07:59:09;;;;;;;26.73;9.90;;;8.70;99.90;;;;;;5075157;28;20407;-82
2023/10/25 08:01:59;;;;;;;17.10;8.95;;;8.80;99.90;;;;;;5074881;28;20048;-83
2023/10/25 08:04:45;;;;;;;20.42;9.93;;;8.90;99.90;;;;;;5075278;28;20056;-84
2023/10/25 08:07:31;;;;;;;24.10;11.65;;;8.90;99.90;;;;;;5074651;28;20091;-77
2023/10/25 08:10:17;;;;;;;18.33;9.68;;;9.00;99.90;;;;;;5074000;28;20399;-82
2023/10/25 08:13:03;;;;;;;19.02;9.55;;;9.00;99.90;;;;;;5074785;28;20052;-81
2023/10/25 08:15:59;;;;;;;19.98;9.13;;;9.10;99.90;;;;;;5075129;28;20052;-77
2023/10/25 08:18:45;;;;;;;17.08;9.38;;;9.10;99.90;;;;;;5093382;28;20036;-85
2023/10/25 08:21:31;;;;;;;20.05;10.52;;;9.10;99.90;;;;;;5072000;28;20190;-86
2023/10/25 08:24:18;;;;;;;20.77;9.27;;;9.10;99.90;;;;;;5055270;28;20094;-74
2023/10/25 08:27:04;;;;;;;17.98;9.18;;;9.10;99.90;;;;;;5057569;28;20056;-81
2023/10/25 08:29:51;;;;;;;22.92;10.68;;;9.00;99.90;;;;;;5080525;28;20139;-78
2023/10/25 08:32:37;;;;;;;20.90;9.85;;;9.00;99.90;;;;;;5065042;28;20052;-84
2023/10/25 08:35:24;;;;;;;19.85;10.75;;;9.00;99.90;;;;;;5076459;28;20099;-82
2023/10/25 08:38:10;;;;;;;19.20;9.70;;;9.00;99.90;;;;;;5072532;28;20044;-86
2023/10/25 08:41:03;;;;;;;19.95;9.25;;;9.00;99.90;;;;;;5054552;28;20080;-82
2023/10/25 08:43:49;;;;;;;19.52;9.23;;;9.00;99.90;;;;;;5054271;28;20139;-79
2023/10/25 08:46:36;;;;;;;14.82;8.70;;;9.00;99.90;;;;;;5058539;28;20060;-83
2023/10/25 08:49:22;;;;;;;18.38;9.35;;;9.10;99.90;;;;;;5073739;28;20059;-77
2023/10/25 08:52:10;;;;;;;17.77;9.15;;;9.10;99.90;;;;;;5055147;28;20086;-78
2023/10/25 08:54:57;;;;;;;19.40;9.48;;;9.10;99.90;;;;;;5053539;28;20507;-75
2023/10/25 08:57:43;;;;;;;17.90;9.80;;;9.10;99.90;;;;;;5054962;28;20110;-77
2023/10/25 09:00:31;;;;;;;18.15;9.35;;;9.20;99.90;;;;;;5055665;28;20048;-75
2023/10/25 09:03:32;;;;;;;16.70;9.38;;;9.20;99.90;;;;;;5054097;28;20048;-77
2023/10/25 09:06:26;;;;;;;16.83;8.45;;;9.20;99.90;;;;;;5055019;28;20541;-77
2023/10/25 09:09:12;;;;;;;18.77;9.32;;;9.20;99.90;;;;;;5053353;28;20091;-75
2023/10/25 09:11:58;;;;;;;18.23;9.43;;;9.30;99.90;;;;;;5039809;28;20059;-77
2023/10/25 09:14:47;;;;;;;20.33;10.00;;;9.30;99.90;;;;;;5054799;28;20044;-78
2023/10/25 09:17:35;;;;;;;18.75;8.65;;;9.30;99.90;;;;;;5054196;28;20063;-82
2023/10/25 09:20:30;;;;;;;20.92;9.25;;;9.40;99.90;;;;;;5082396;28;20500;-80
2023/10/25 09:23:16;;;;;;;16.05;8.43;;;9.40;99.90;;;;;;5061181;28;20067;-79
2023/10/25 09:26:15;;;;;;;18.30;8.48;;;9.50;99.90;;;;;;5073369;28;20059;-74
2023/10/25 09:29:01;;;;;;;20.73;9.13;;;9.50;99.90;;;;;;5072713;28;20101;-75
2023/10/25 09:31:47;;;;;;;16.60;8.35;;;9.60;99.90;;;;;;5059480;28;20062;-76
2023/10/25 09:34:36;;;;;;;15.80;8.30;;;9.60;99.90;;;;;;5073197;28;20100;-81
2023/10/25 09:37:23;;;;;;;18.75;8.82;;;9.70;99.90;;;;;;5073465;28;20044;-78
2023/10/25 09:40:10;;;;;;;24.00;8.68;;;9.80;99.90;;;;;;5073065;28;20054;-75
2023/10/25 09:43:01;;;;;;;15.88;8.43;;;9.80;99.90;;;;;;5059902;28;20056;-81
2023/10/25 09:45:49;;;;;;;19.77;8.13;;;9.90;99.90;;;;;;5072967;28;20407;-77
2023/10/25 09:48:36;;;;;;;12.85;7.95;;;9.90;99.90;;;;;;5091524;28;20051;-77
2023/10/25 09:51:39;;;;;;;13.27;7.10;;;10.00;99.90;;;;;;5072403;28;20098;-80
2023/10/25 09:54:34;;;;;;;11.85;7.22;;;10.00;99.90;;;;;;5072924;28;20064;-82
2023/10/25 09:57:21;;;;;;;14.18;7.55;;;10.10;99.90;;;;;;5072619;28;20055;-81
2023/10/25 10:00:08;;;;;;;16.75;7.75;;;10.20;99.90;;;;;;5072690;28;20056;-85
2023/10/25 10:03:00;;;;;;;13.43;7.22;;;10.20;99.90;;;;;;5059520;28;20106;-79
2023/10/25 10:06:00;;;;;;;13.75;6.75;;;10.20;99.90;;;;;;5059679;28;20048;-81
2023/10/25 10:09:25;;;;;;;15.20;7.32;;;10.30;99.90;;;;;;5072241;28;20052;-78
2023/10/25 10:12:12;;;;;;;10.65;5.78;;;10.30;99.90;;;;;;5072015;28;20056;-83
2023/10/25 10:14:58;;;;;;;12.75;6.05;;;10.50;99.90;;;;;;5071260;28;20087;-82
2023/10/25 10:17:45;;;;;;;15.30;7.43;;;10.50;99.90;;;;;;5073338;28;20533;-80
2023/10/25 10:20:31;;;;;;;13.15;6.40;;;10.60;99.90;;;;;;5059746;28;20059;-86
2023/10/25 10:23:40;;;;;;;18.02;7.13;;;10.60;99.90;;;;;;5072901;28;20075;-78
2023/10/25 10:26:44;;;;;;;17.33;6.35;;;10.70;99.90;;;;;;5072855;28;20044;-86
2023/10/25 10:29:36;;;;;;;13.60;6.63;;;10.80;99.90;;;;;;5059295;28;20082;-86
2023/10/25 10:32:22;;;;;;;12.50;6.53;;;10.90;99.90;;;;;;5076391;28;20139;-85
2023/10/25 10:35:21;;;;;;;12.27;6.53;;;10.90;99.90;;;;;;5072326;28;20062;-80
2023/10/25 10:38:07;;;;;;;15.15;7.13;;;11.00;99.90;;;;;;5072702;28;20051;-83
2023/10/25 10:41:02;;;;;;;15.10;6.75;;;11.00;99.90;;;;;;5060174;28;20060;-81
2023/10/25 10:43:47;;;;;;;19.05;6.53;;;11.00;99.90;;;;;;5058931;28;20056;-81
2023/10/25 10:46:43;;;;;;;19.80;6.65;;;11.10;99.90;;;;;;5089746;28;20040;-85
2023/10/25 10:49:30;;;;;;;;;;;11.10;99.90;;;;;;5074057;28;20606;-81
2023/10/25 10:52:16;;;;;;;10.23;6.50;;;11.20;99.90;;;;;;5089904;28;19924;-84
2023/10/25 10:55:02;;;;;;;10.23;5.53;;;11.30;99.90;;;;;;5072879;28;20048;-78
2023/10/25 10:57:48;;;;;;;16.55;6.93;;;11.30;99.90;;;;;;5072092;28;20488;-82
2023/10/25 11:00:35;;;;;;;17.50;6.60;;;11.30;99.90;;;;;;5076585;28;20052;-86
2023/10/25 11:03:25;;;;;;;12.00;5.95;;;11.40;99.90;;;;;;5072504;28;20052;-80
2023/10/25 11:06:11;;;;;;;13.65;6.40;;;11.50;99.90;;;;;;5091198;28;20059;-83
2023/10/25 11:09:00;;;;;;;11.25;5.97;;;11.60;99.90;;;;;;5073573;28;20927;-83
2023/10/25 11:11:46;;;;;;;10.75;6.47;;;11.70;99.90;;;;;;5090093;28;20055;-87
2023/10/25 11:14:40;;;;;;;14.13;6.65;;;11.70;99.90;;;;;;5071590;28;20492;-85
2023/10/25 11:17:26;;;;;;;10.57;5.55;;;11.80;99.90;;;;;;5090483;28;20060;-80
2023/10/25 11:20:12;;;;;;;11.57;5.63;;;11.90;99.90;;;;;;5073048;28;20055;-83
2023/10/25 11:22:58;;;;;;;12.88;6.38;;;11.80;99.90;;;;;;5077270;28;20087;-81
2023/10/25 11:25:44;;;;;;;13.75;6.28;;;11.90;99.90;;;;;;5092933;28;20044;-80
2023/10/25 11:28:31;;;;;;;16.98;6.05;;;11.90;99.90;;;;;;5093676;28;20389;-81
2023/10/25 11:31:18;;;;;;;10.18;5.80;;;11.90;99.90;;;;;;5075184;28;20063;-77
2023/10/25 11:34:04;;;;;;;10.50;5.07;;;11.90;99.90;;;;;;5074701;28;20139;-89
2023/10/25 11:36:50;;;;;;;11.27;5.47;;;11.90;99.90;;;;;;5076107;28;20059;-86
2023/10/25 11:40:01;;;;;;;17.08;6.00;;;12.00;99.90;;;;;;5075798;28;20496;-81
2023/10/25 11:42:48;;;;;;;14.57;5.32;;;12.00;99.90;;;;;;5075611;28;20094;-81
2023/10/25 11:45:36;;;;;;;13.00;5.35;;;12.00;99.90;;;;;;5075535;28;20134;-84
2023/10/25 11:48:22;;;;;;;9.15;5.32;;;12.00;99.90;;;;;;5076571;28;20499;-81
2023/10/25 11:51:08;;;;;;;11.27;6.35;;;12.00;99.90;;;;;;5094182;28;20048;-87
2023/10/25 11:53:54;;;;;;;9.93;5.22;;;12.00;99.90;;;;;;5074564;28;20056;-72
2023/10/25 11:56:40;;;;;;;12.13;5.55;;;12.00;99.90;;;;;;5061990;28;20074;-86
2023/10/25 11:59:26;;;;;;;14.80;5.68;;;12.10;99.90;;;;;;5078778;28;20040;-76
2023/10/25 12:02:12;;;;;;;14.57;5.35;;;12.00;99.90;;;;;;5074933;28;20117;-76
2023/10/25 12:04:59;;;;;;;11.02;5.53;;;12.00;99.90;;;;;;5093505;28;20063;-74
2023/10/25 12:07:48;;;;;;;11.80;5.45;;;12.00;99.90;;;;;;5061684;28;20056;-74
2023/10/25 12:10:35;;;;;;;13.25;5.43;;;12.00;99.90;;;;;;5074777;28;20055;-75
2023/10/25 12:13:21;;;;;;;11.35;5.40;;;12.00;99.90;;;;;;5061974;28;20048;-77
2023/10/25 12:16:08;;;;;;;11.57;6.57;;;12.00;99.90;;;;;;5093485;28;20403;-76
2023/10/25 12:18:54;;;;;;;15.70;7.25;;;12.10;99.90;;;;;;5047395;28;20063;-80
2023/10/25 12:21:42;;;;;;;14.45;6.00;;;12.10;99.90;;;;;;5075632;28;20063;-74
2023/10/25 12:24:29;;;;;;;11.57;5.57;;;12.10;99.90;;;;;;5074928;28;20048;-75
2023/10/25 12:27:15;;;;;;;12.68;5.55;;;12.20;99.90;;;;;;5061320;28;20074;-73
2023/10/25 12:30:01;;;;;;;10.75;5.15;;;12.20;99.90;;;;;;5075549;28;20063;-75
2023/10/25 12:32:47;;;;;;;15.23;5.65;;;12.30;99.90;;;;;;5095277;28;20040;-80
2023/10/25 12:35:33;;;;;;;17.42;6.25;;;12.40;99.90;;;;;;5077635;28;20114;-74
2023/10/25 12:38:20;;;;;;;14.90;6.35;;;12.40;99.90;;;;;;5078159;28;20056;-74
2023/10/25 12:41:06;;;;;;;11.02;5.40;;;12.40;99.90;;;;;;5075947;28;20086;-78
2023/10/25 12:43:53;;;;;;;12.00;5.40;;;12.50;99.90;;;;;;5060816;28;20054;-77
2023/10/25 12:46:40;;;;;;;15.13;6.22;;;12.50;99.90;;;;;;5074473;28;20044;-78
2023/10/25 12:49:26;;;;;;;16.25;6.28;;;12.50;99.90;;;;;;5075075;28;20040;-75
2023/10/25 12:52:12;;;;;;;12.35;6.18;;;12.60;99.90;;;;;;5075069;28;20060;-86
2023/10/25 12:55:00;;;;;;;16.42;6.88;;;12.60;99.90;;;;;;5061236;28;20112;-83
2023/10/25 12:57:46;;;;;;;13.95;6.28;;;12.60;99.90;;;;;;5060544;28;20048;-80
2023/10/25 13:00:35;;;;;;;14.57;6.32;;;12.60;99.90;;;;;;5060966;28;20052;-80
2023/10/25 13:03:21;;;;;;;11.77;5.82;;;12.60;99.90;;;;;;5092126;28;20060;-78
2023/10/25 13:06:07;;;;;;;12.05;5.70;;;12.60;99.90;;;;;;5061999;28;20056;-87
2023/10/25 13:08:55;;;;;;;19.13;6.47;;;12.60;99.90;;;;;;5077331;28;20055;-77
2023/10/25 13:11:41;;;;;;;12.57;5.38;;;12.60;99.90;;;;;;5080931;28;20131;-74
2023/10/25 13:14:27;;;;;;;11.70;5.35;;;12.60;99.90;;;;;;5083048;28;20134;-84
2023/10/25 13:17:15;;;;;;;11.82;6.03;;;12.60;99.90;;;;;;5078918;28;20048;-80
2023/10/25 13:20:08;;;;;;;11.45;5.70;;;12.50;99.90;;;;;;5077133;28;20058;-77
2023/10/25 13:22:58;;;;;;;10.52;6.00;;;12.50;99.90;;;;;;5060094;28;20059;-78
2023/10/25 13:25:44;;;;;;;13.68;6.15;;;12.50;99.90;;;;;;5073404;28;20522;-82
2023/10/25 13:28:30;;;;;;;15.95;6.20;;;12.50;99.90;;;;;;5059950;28;20056;-85
2023/10/25 13:31:16;;;;;;;11.57;6.82;;;12.50;99.90;;;;;;5090104;28;20561;-84
2023/10/25 13:34:03;;;;;;;10.85;5.47;;;12.50;99.90;;;;;;5090353;28;20059;-76
2023/10/25 13:36:50;;;;;;;12.45;6.32;;;12.40;99.90;;;;;;5091655;28;20054;-83
2023/10/25 13:39:36;;;;;;;11.55;5.72;;;12.40;99.90;;;;;;5091473;28;20063;-79
2023/10/25 13:42:22;;;;;;;11.02;6.03;;;12.40;99.90;;;;;;5059997;28;20056;-77
2023/10/25 13:45:09;;;;;;;14.23;6.35;;;12.40;99.90;;;;;;5090333;28;20088;-75
2023/10/25 13:47:55;;;;;;;14.98;5.82;;;12.30;99.90;;;;;;5073249;28;20044;-75
2023/10/25 13:50:41;;;;;;;9.88;5.93;;;12.30;99.90;;;;;;5059973;28;20051;-83
2023/10/25 13:53:27;;;;;;;11.68;6.13;;;12.30;99.90;;;;;;5073225;28;20185;-75
2023/10/25 13:56:17;;;;;;;13.35;5.47;;;12.30;99.90;;;;;;5073570;28;20051;-76
2023/10/25 13:59:03;;;;;;;11.23;6.80;;;12.20;99.90;;;;;;5074086;28;20056;-74
2023/10/25 14:01:49;;;;;;;15.98;5.80;;;12.30;99.90;;;;;;5073203;28;20673;-83
2023/10/25 14:04:36;;;;;;;14.70;5.95;;;12.20;99.90;;;;;;5071643;28;20135;-78
2023/10/25 14:07:22;;;;;;;12.30;6.57;;;12.20;99.90;;;;;;5075277;28;20039;-81
2023/10/25 14:10:08;;;;;;;10.52;5.80;;;12.20;99.90;;;;;;5072233;28;20130;-79
2023/10/25 14:12:54;;;;;;;14.43;6.43;;;12.20;99.90;;;;;;5059212;28;20415;-82
2023/10/25 14:15:41;;;;;;;15.18;6.18;;;12.20;99.90;;;;;;5073770;28;20061;-79
2023/10/25 14:18:27;;;;;;;12.80;7.03;;;12.20;99.90;;;;;;5059334;28;20054;-85
2023/10/25 14:21:14;;;;;;;11.93;6.07;;;12.20;99.90;;;;;;5072458;28;20145;-88
2023/10/25 14:24:01;;;;;;;13.35;6.78;;;12.20;99.90;;;;;;5058374;28;20056;-80